Time;durP1;ratioP1;P1;durP2;ratioP2;P2;SDS_P1;SDS_P2;PMS_P1;PMS_P2;Temp;Humidity;BMP_temperature;BMP_pressure;BME280_temperature;BME280_humidity;BME280_pressure;Samples;Min_cycle;Max_cycle;Signal;HPM_P1;HPM_P2
2021/11/11 00:02:10;;;;;;;3.63;2.63;;;8.10;59.60;;;;;;4920057;29;20500;-86
2021/11/11 00:04:36;;;;;;;2.70;2.30;;;8.10;59.50;;;;;;4901866;29;20040;-83
2021/11/11 00:07:04;;;;;;;3.13;2.47;;;8.20;59.60;;;;;;4902829;29;20038;-85
2021/11/11 00:09:31;;;;;;;3.00;2.58;;;8.20;59.50;;;;;;4920210;29;20032;-84
2021/11/11 00:11:58;;;;;;;3.00;2.47;;;8.10;59.60;;;;;;4920244;29;20039;-83
2021/11/11 00:14:24;;;;;;;5.18;2.60;;;8.20;59.40;;;;;;4919510;29;20046;-80
2021/11/11 00:16:50;;;;;;;2.65;2.35;;;8.20;59.50;;;;;;4921166;29;20039;-83
2021/11/11 00:19:16;;;;;;;2.95;2.40;;;8.20;59.70;;;;;;4905613;29;20491;-83
2021/11/11 00:21:42;;;;;;;4.18;2.67;;;8.20;59.80;;;;;;4905816;29;20031;-85
2021/11/11 00:24:08;;;;;;;2.42;2.22;;;8.10;59.70;;;;;;4923169;29;20039;-84
2021/11/11 00:26:37;;;;;;;3.63;2.70;;;8.20;59.80;;;;;;4905895;29;20059;-84
2021/11/11 00:29:04;;;;;;;4.20;2.70;;;8.20;59.90;;;;;;4906792;29;20155;-82
2021/11/11 00:31:29;;;;;;;3.70;2.75;;;8.20;60.10;;;;;;4922980;29;20068;-84
2021/11/11 00:33:55;;;;;;;3.50;2.50;;;8.20;60.00;;;;;;4906540;29;20037;-85
2021/11/11 00:36:21;;;;;;;3.65;2.70;;;8.20;60.00;;;;;;4906308;29;20138;-85
2021/11/11 00:38:47;;;;;;;3.33;2.50;;;8.20;60.00;;;;;;4906073;29;20599;-82
2021/11/11 00:41:14;;;;;;;4.47;2.60;;;8.20;60.00;;;;;;4924081;29;20036;-85
2021/11/11 00:43:41;;;;;;;3.97;3.13;;;8.20;59.90;;;;;;4923947;29;20110;-85
2021/11/11 00:46:07;;;;;;;4.15;2.80;;;8.20;59.80;;;;;;4905797;29;20040;-85
2021/11/11 00:48:32;;;;;;;3.47;2.47;;;8.20;59.70;;;;;;4905906;29;20038;-83
2021/11/11 00:50:59;;;;;;;3.33;2.58;;;8.20;59.60;;;;;;4923171;29;20455;-84
2021/11/11 00:53:25;;;;;;;4.45;3.10;;;8.20;59.40;;;;;;4922653;29;20522;-82
2021/11/11 00:55:51;;;;;;;3.72;2.67;;;8.20;59.50;;;;;;4895509;29;20131;-83
2021/11/11 00:58:21;;;;;;;4.05;2.80;;;8.20;59.50;;;;;;4890951;29;20035;-85
2021/11/11 01:00:47;;;;;;;3.42;2.60;;;8.20;59.50;;;;;;4905713;29;20055;-82
2021/11/11 01:03:16;;;;;;;3.15;2.42;;;8.20;59.60;;;;;;4907707;29;20047;-84
2021/11/11 01:05:42;;;;;;;5.03;3.47;;;8.20;59.40;;;;;;4922161;29;20114;-82
2021/11/11 01:08:08;;;;;;;3.80;2.92;;;8.20;59.40;;;;;;4906128;29;20135;-82
2021/11/11 01:10:35;;;;;;;2.72;2.53;;;8.20;59.40;;;;;;4922554;29;20260;-83
2021/11/11 01:13:02;;;;;;;5.60;2.45;;;8.30;59.50;;;;;;4903425;29;20119;-81
2021/11/11 01:15:32;;;;;;;5.20;2.53;;;8.20;59.30;;;;;;4922538;29;20423;-80
2021/11/11 01:18:00;;;;;;;4.03;2.67;;;8.20;59.20;;;;;;4905532;29;20058;-84
2021/11/11 01:20:26;;;;;;;3.28;2.53;;;8.20;59.20;;;;;;4922520;29;20462;-83
2021/11/11 01:22:55;;;;;;;4.35;2.90;;;8.20;59.10;;;;;;4921265;29;20185;-80
2021/11/11 01:25:23;;;;;;;4.57;2.80;;;8.20;59.00;;;;;;4905098;29;20063;-81
2021/11/11 01:27:52;;;;;;;4.97;2.88;;;8.20;58.90;;;;;;4905749;29;20040;-84
2021/11/11 01:30:26;;;;;;;4.53;2.90;;;8.20;59.60;;;;;;4904568;29;20032;-83
2021/11/11 01:32:57;;;;;;;3.53;2.55;;;8.30;59.00;;;;;;4921661;29;20380;-83
2021/11/11 01:35:24;;;;;;;3.28;2.67;;;8.30;59.10;;;;;;4905375;29;20039;-82
2021/11/11 01:37:50;;;;;;;4.13;2.58;;;8.30;58.90;;;;;;4923241;29;20028;-84
2021/11/11 01:40:17;;;;;;;2.88;2.35;;;8.30;58.80;;;;;;4905632;29;20042;-83
2021/11/11 01:42:57;;;;;;;5.38;2.67;;;8.30;58.90;;;;;;4904463;29;20040;-83
2021/11/11 01:45:30;;;;;;;5.50;2.35;;;8.30;58.90;;;;;;4921720;29;20042;-83
2021/11/11 01:48:01;;;;;;;3.42;2.38;;;8.30;58.80;;;;;;4906532;29;20158;-85
2021/11/11 01:50:30;;;;;;;3.22;2.45;;;8.30;58.90;;;;;;4909678;29;20411;-85
2021/11/11 01:52:56;;;;;;;3.08;2.17;;;8.30;58.80;;;;;;4904719;29;20031;-82
2021/11/11 01:55:23;;;;;;;4.10;2.47;;;8.30;58.60;;;;;;4904102;29;20028;-85
2021/11/11 01:57:51;;;;;;;2.72;2.30;;;8.30;58.80;;;;;;4904613;29;20036;-85
2021/11/11 02:00:23;;;;;;;4.20;2.70;;;8.30;58.70;;;;;;4905068;29;20472;-84
2021/11/11 02:02:59;;;;;;;3.53;2.60;;;8.30;58.60;;;;;;4908749;29;20059;-85
2021/11/11 02:05:45;;;;;;;4.78;2.53;;;8.30;58.60;;;;;;4921746;29;20042;-83
2021/11/11 02:08:19;;;;;;;3.90;2.72;;;8.30;58.50;;;;;;4919656;29;20036;-86
2021/11/11 02:10:46;;;;;;;5.38;2.50;;;8.30;58.40;;;;;;4904606;29;20131;-85
2021/11/11 02:13:13;;;;;;;4.57;2.60;;;8.30;58.60;;;;;;4904821;29;20040;-84
2021/11/11 02:15:39;;;;;;;3.83;2.95;;;8.30;58.70;;;;;;4921705;29;20127;-85
2021/11/11 02:18:07;;;;;;;3.38;2.28;;;8.30;58.50;;;;;;4902829;29;20089;-86
2021/11/11 02:20:39;;;;;;;3.90;2.67;;;8.30;58.50;;;;;;4894489;29;20067;-83
2021/11/11 02:23:15;;;;;;;3.72;2.55;;;8.30;58.50;;;;;;4921554;29;20448;-86
2021/11/11 02:26:04;;;;;;;4.15;2.53;;;8.30;58.40;;;;;;4903593;29;20035;-85
2021/11/11 02:28:43;;;;;;;4.05;2.60;;;8.30;58.40;;;;;;4903226;29;20514;-85
2021/11/11 02:31:09;;;;;;;3.13;2.28;;;8.40;59.20;;;;;;4904072;29;20126;-85
2021/11/11 02:33:41;;;;;;;4.75;2.70;;;8.30;58.30;;;;;;4922732;29;20090;-83
2021/11/11 02:36:12;;;;;;;3.97;2.67;;;8.30;58.40;;;;;;4906887;29;20032;-85
2021/11/11 02:38:39;;;;;;;4.32;2.78;;;8.30;58.40;;;;;;4907869;29;20036;-86
2021/11/11 02:41:05;;;;;;;3.13;2.40;;;8.40;58.50;;;;;;4905859;29;20091;-84
2021/11/11 02:43:32;;;;;;;4.53;2.55;;;8.30;58.40;;;;;;4903893;29;20126;-85
2021/11/11 02:46:04;;;;;;;2.42;2.22;;;8.40;58.20;;;;;;4903800;29;20032;-83
2021/11/11 02:48:31;;;;;;;3.58;2.35;;;8.30;58.00;;;;;;4903828;29;20039;-83
2021/11/11 02:50:58;;;;;;;4.05;2.53;;;8.40;58.10;;;;;;4903951;29;20119;-84
2021/11/11 02:53:24;;;;;;;4.38;2.40;;;8.30;58.20;;;;;;4887359;29;20654;-85
2021/11/11 02:55:52;;;;;;;3.90;2.35;;;8.40;58.10;;;;;;4888022;29;20032;-83
2021/11/11 02:58:19;;;;;;;4.13;2.28;;;8.40;58.20;;;;;;4920784;29;20392;-85
2021/11/11 03:00:52;;;;;;;3.28;2.45;;;8.30;58.00;;;;;;4893686;29;20042;-85
2021/11/11 03:03:21;;;;;;;4.00;2.88;;;8.40;58.10;;;;;;4895627;29;20039;-85
2021/11/11 03:05:47;;;;;;;4.70;2.22;;;8.40;58.10;;;;;;4903542;29;20039;-84
2021/11/11 03:08:15;;;;;;;3.88;2.50;;;8.40;58.10;;;;;;4907124;29;20471;-85
2021/11/11 03:10:49;;;;;;;4.10;2.47;;;8.40;58.00;;;;;;4888897;29;20094;-84
2021/11/11 03:13:17;;;;;;;3.50;2.55;;;8.40;58.00;;;;;;4895233;29;20045;-84
2021/11/11 03:15:47;;;;;;;3.47;2.50;;;8.40;57.90;;;;;;4903403;29;20245;-86
2021/11/11 03:18:14;;;;;;;5.03;2.40;;;8.40;58.10;;;;;;4902984;29;20032;-86
2021/11/11 03:20:40;;;;;;;5.72;2.58;;;8.40;58.10;;;;;;4903900;29;20583;-81
2021/11/11 03:23:07;;;;;;;3.90;2.53;;;8.40;58.00;;;;;;4902338;29;20039;-85
2021/11/11 03:25:34;;;;;;;4.57;2.53;;;8.50;57.90;;;;;;4919672;29;20040;-84
2021/11/11 03:28:03;;;;;;;3.60;2.78;;;8.40;57.90;;;;;;4887409;29;20042;-84
2021/11/11 03:30:33;;;;;;;3.45;2.63;;;8.40;58.00;;;;;;4910532;29;20036;-88
2021/11/11 03:32:59;;;;;;;4.30;2.60;;;8.40;57.60;;;;;;4890880;29;20523;-79
2021/11/11 03:35:32;;;;;;;3.33;2.38;;;8.40;57.70;;;;;;4902051;29;20032;-80
2021/11/11 03:38:01;;;;;;;6.75;2.95;;;8.40;57.60;;;;;;4900978;29;20419;-79
2021/11/11 03:40:32;;;;;;;3.03;2.30;;;8.40;57.70;;;;;;4893905;29;20032;-80
2021/11/11 03:43:00;;;;;;;4.57;2.63;;;8.40;57.80;;;;;;4897009;29;20095;-78
2021/11/11 03:45:33;;;;;;;4.50;2.20;;;8.40;57.60;;;;;;4913737;29;20118;-80
2021/11/11 03:47:59;;;;;;;4.18;2.30;;;8.50;57.70;;;;;;4902104;29;20023;-79
2021/11/11 03:50:26;;;;;;;2.60;2.10;;;8.40;57.50;;;;;;4901968;28;20051;-78
2021/11/11 03:52:55;;;;;;;5.15;2.78;;;8.50;57.50;;;;;;4885345;29;20423;-80
2021/11/11 03:55:24;;;;;;;4.57;2.85;;;8.40;57.20;;;;;;4902789;29;20051;-78
2021/11/11 03:57:53;;;;;;;3.30;2.35;;;8.50;57.40;;;;;;4902384;29;20036;-81
2021/11/11 04:00:20;;;;;;;4.25;2.53;;;8.50;57.40;;;;;;4918372;29;20031;-79
2021/11/11 04:02:52;;;;;;;3.83;2.80;;;8.50;57.20;;;;;;4906833;29;20499;-78
2021/11/11 04:05:21;;;;;;;3.97;2.47;;;8.50;57.20;;;;;;4902986;29;20110;-78
2021/11/11 04:07:54;;;;;;;2.70;2.25;;;8.50;57.30;;;;;;4902764;29;20056;-79
2021/11/11 04:10:21;;;;;;;3.45;2.50;;;8.50;57.10;;;;;;4887139;29;20040;-77
2021/11/11 04:12:50;;;;;;;3.75;2.28;;;8.50;57.00;;;;;;4902144;29;20095;-78
2021/11/11 04:15:16;;;;;;;3.30;2.40;;;8.50;56.90;;;;;;4903699;29;20036;-80
2021/11/11 04:17:42;;;;;;;4.47;2.50;;;8.50;57.00;;;;;;4886338;29;20123;-77
2021/11/11 04:20:10;;;;;;;3.67;2.70;;;8.50;56.90;;;;;;4890391;29;20506;-78
2021/11/11 04:22:40;;;;;;;3.70;2.72;;;8.50;56.80;;;;;;4902827;29;20364;-79
2021/11/11 04:25:13;;;;;;;3.50;2.17;;;8.50;56.90;;;;;;4891197;29;20032;-83
2021/11/11 04:27:57;;;;;;;5.05;2.78;;;8.60;56.90;;;;;;4902754;29;20043;-83
2021/11/11 04:30:31;;;;;;;6.82;2.42;;;8.60;57.00;;;;;;4906069;29;20028;-79
2021/11/11 04:32:59;;;;;;;;;;;8.50;57.00;;;;;;4903200;29;20031;-80
2021/11/11 04:35:26;;;;;;;;;;;8.50;56.90;;;;;;4902141;29;20518;-80
2021/11/11 04:51:24;;;;;;;4.55;3.00;;;8.60;56.90;;;;;;4901186;29;20123;-80
2021/11/11 05:04:10;;;;;;;4.13;2.73;;;8.60;57.00;;;;;;4907306;29;20040;-80
2021/11/11 05:06:37;;;;;;;4.07;2.83;;;8.60;57.00;;;;;;4904540;29;20035;-79
2021/11/11 05:09:03;;;;;;;3.53;2.55;;;8.60;56.90;;;;;;4889353;29;20514;-79
2021/11/11 05:11:31;;;;;;;5.18;2.47;;;8.60;56.90;;;;;;4904878;29;20046;-85
2021/11/11 05:14:00;;;;;;;4.35;2.65;;;8.70;57.00;;;;;;4906194;29;20027;-82
2021/11/11 05:16:26;;;;;;;3.80;2.53;;;8.70;56.90;;;;;;4930741;29;20062;-86
2021/11/11 05:18:51;;;;;;;3.55;2.60;;;8.70;56.90;;;;;;4914424;29;20086;-80
2021/11/11 05:21:19;;;;;;;3.15;2.20;;;8.70;56.90;;;;;;4919396;29;20035;-80
2021/11/11 05:23:45;;;;;;;5.20;3.17;;;8.70;56.90;;;;;;4917335;29;20038;-81
2021/11/11 05:26:13;;;;;;;4.80;3.28;;;8.70;56.80;;;;;;4903875;29;20040;-80
2021/11/11 05:28:40;;;;;;;6.40;3.38;;;8.70;56.80;;;;;;4902248;29;20131;-83
2021/11/11 05:31:14;;;;;;;7.25;3.35;;;8.80;57.00;;;;;;4891177;29;20127;-83
2021/11/11 05:33:40;;;;;;;5.97;3.03;;;8.80;58.40;;;;;;4906173;29;20036;-84
2021/11/11 05:36:08;;;;;;;7.57;3.72;;;8.90;59.80;;;;;;4905940;29;20032;-84
2021/11/11 05:38:34;;;;;;;5.32;2.97;;;8.90;60.70;;;;;;4913025;29;20376;-84
2021/11/11 05:41:00;;;;;;;5.30;3.47;;;8.90;61.30;;;;;;4912133;29;20044;-82
2021/11/11 05:43:27;;;;;;;6.53;3.25;;;9.00;61.60;;;;;;4889392;29;20040;-82
2021/11/11 05:45:54;;;;;;;4.32;3.00;;;9.10;62.10;;;;;;4904506;29;20043;-82
2021/11/11 05:48:20;;;;;;;4.10;3.28;;;9.10;62.30;;;;;;4905774;29;20047;-84
2021/11/11 05:50:46;;;;;;;7.95;2.75;;;9.20;62.70;;;;;;4908642;29;20032;-83
2021/11/11 05:53:14;;;;;;;4.07;2.90;;;9.20;62.70;;;;;;4902491;29;20086;-84
2021/11/11 05:55:41;;;;;;;4.85;3.00;;;9.20;63.00;;;;;;4904424;29;20035;-81
2021/11/11 05:58:12;;;;;;;4.60;3.03;;;9.30;63.00;;;;;;4904850;29;20063;-83
2021/11/11 06:00:39;;;;;;;5.97;2.60;;;9.30;63.20;;;;;;4902866;29;20098;-83
2021/11/11 06:03:16;;;;;;;4.85;2.50;;;9.30;63.20;;;;;;4904039;29;20071;-82
2021/11/11 06:05:43;;;;;;;4.65;2.65;;;9.40;63.20;;;;;;4902913;29;20519;-82
2021/11/11 06:08:14;;;;;;;6.88;3.50;;;9.40;63.00;;;;;;4903659;29;20503;-83
2021/11/11 06:10:40;;;;;;;3.80;2.47;;;9.50;62.90;;;;;;4903937;29;20140;-84
2021/11/11 06:13:06;;;;;;;5.25;3.13;;;9.50;63.00;;;;;;4912037;29;20035;-84
2021/11/11 06:15:32;;;;;;;3.65;2.50;;;9.50;62.80;;;;;;4903188;29;20384;-84
2021/11/11 06:17:59;;;;;;;3.92;2.58;;;9.60;62.80;;;;;;4903713;29;20035;-84
2021/11/11 06:20:32;;;;;;;3.63;2.47;;;9.60;62.90;;;;;;4903338;29;20035;-85
2021/11/11 06:23:00;;;;;;;5.93;2.97;;;9.60;62.70;;;;;;4907426;29;20411;-86
2021/11/11 06:25:27;;;;;;;7.22;2.50;;;9.70;62.50;;;;;;4894311;29;20028;-85
2021/11/11 06:27:57;;;;;;;9.52;2.92;;;9.70;62.40;;;;;;4906512;29;20052;-83
2021/11/11 06:30:24;;;;;;;4.80;2.42;;;9.70;62.60;;;;;;4905704;29;20047;-86
2021/11/11 06:32:50;;;;;;;3.30;2.45;;;9.70;62.90;;;;;;4877315;29;20124;-84
2021/11/11 06:35:20;;;;;;;3.42;2.00;;;9.80;63.20;;;;;;4904226;29;20382;-86
2021/11/11 06:37:46;;;;;;;5.18;2.50;;;9.80;63.40;;;;;;4921164;29;20036;-85
2021/11/11 06:40:12;;;;;;;2.80;2.40;;;9.80;63.60;;;;;;4904214;29;20122;-85
2021/11/11 06:42:38;;;;;;;3.75;2.05;;;9.80;63.80;;;;;;4919587;29;20049;-85
2021/11/11 06:45:10;;;;;;;4.30;2.33;;;9.90;64.00;;;;;;4920090;29;20418;-85
2021/11/11 06:47:37;;;;;;;5.47;2.20;;;9.90;64.10;;;;;;4920119;29;20519;-85
2021/11/11 06:50:05;;;;;;;6.25;2.55;;;10.00;64.30;;;;;;4920408;29;20414;-82
2021/11/11 06:52:31;;;;;;;5.30;2.40;;;10.00;64.40;;;;;;4919896;29;20563;-84
2021/11/11 06:54:56;;;;;;;3.78;2.17;;;10.00;64.20;;;;;;4920408;29;20031;-85
2021/11/11 06:57:22;;;;;;;3.10;2.00;;;10.00;64.40;;;;;;4919687;29;20039;-85
2021/11/11 06:59:55;;;;;;;3.97;2.53;;;10.00;64.40;;;;;;4891621;29;20024;-85
2021/11/11 07:02:23;;;;;;;2.55;2.05;;;10.10;64.40;;;;;;4902840;29;20071;-83
2021/11/11 07:04:49;;;;;;;4.50;2.30;;;10.10;65.10;;;;;;4903995;29;20526;-84
2021/11/11 07:07:15;;;;;;;3.22;2.17;;;10.10;64.50;;;;;;4903035;29;20036;-86
2021/11/11 07:09:42;;;;;;;5.63;2.50;;;10.10;64.50;;;;;;4919093;29;20036;-85
2021/11/11 07:12:08;;;;;;;4.53;2.67;;;10.20;64.60;;;;;;4921231;29;20066;-85
2021/11/11 07:14:34;;;;;;;4.88;2.33;;;10.20;64.60;;;;;;4902684;29;20534;-84
2021/11/11 07:17:00;;;;;;;4.65;2.17;;;10.20;64.80;;;;;;4921319;29;20066;-85
2021/11/11 07:19:27;;;;;;;2.95;2.42;;;10.20;64.70;;;;;;4885565;29;20352;-85
2021/11/11 07:21:54;;;;;;;4.55;2.40;;;10.20;64.80;;;;;;4903288;29;20035;-85
2021/11/11 07:24:20;;;;;;;3.50;2.20;;;10.20;64.80;;;;;;4907953;29;20035;-85
2021/11/11 07:26:46;;;;;;;4.47;2.30;;;10.30;64.80;;;;;;4920865;29;20194;-84
2021/11/11 07:29:12;;;;;;;7.70;2.33;;;10.30;64.80;;;;;;4920602;29;20036;-83
2021/11/11 07:31:40;;;;;;;5.30;2.40;;;10.30;64.80;;;;;;4919640;29;20463;-84
2021/11/11 07:34:06;;;;;;;5.07;2.38;;;10.30;64.80;;;;;;4918503;29;20519;-84
2021/11/11 07:36:33;;;;;;;6.63;2.17;;;10.30;64.90;;;;;;4919441;29;20059;-84
2021/11/11 07:39:01;;;;;;;3.60;2.42;;;10.40;65.00;;;;;;4919774;29;20102;-85
2021/11/11 07:41:27;;;;;;;3.60;2.60;;;10.40;65.00;;;;;;4902931;29;20042;-85
2021/11/11 07:43:53;;;;;;;3.08;2.53;;;10.40;64.90;;;;;;4906720;29;20044;-84
2021/11/11 07:46:19;;;;;;;3.85;2.58;;;10.40;65.00;;;;;;4918526;29;20582;-85
2021/11/11 07:48:45;;;;;;;3.88;2.85;;;10.50;65.00;;;;;;4920995;29;20254;-82
2021/11/11 07:51:11;;;;;;;3.38;2.45;;;10.40;64.90;;;;;;4922841;29;20035;-85
2021/11/11 07:53:37;;;;;;;3.75;2.75;;;10.50;65.00;;;;;;4922906;29;20400;-86
2021/11/11 07:56:03;;;;;;;4.97;2.72;;;10.50;65.00;;;;;;4922524;29;20051;-83
2021/11/11 07:58:29;;;;;;;4.95;2.70;;;10.50;65.00;;;;;;4903015;29;20035;-83
2021/11/11 08:00:56;;;;;;;4.95;2.85;;;10.60;65.10;;;;;;4923078;29;20036;-83
2021/11/11 08:03:22;;;;;;;6.70;3.15;;;10.50;65.00;;;;;;4905681;29;20842;-84
2021/11/11 08:05:47;;;;;;;5.60;2.80;;;10.60;65.00;;;;;;4921288;29;20525;-83
2021/11/11 08:08:13;;;;;;;4.75;2.67;;;10.60;65.10;;;;;;4919477;29;20069;-86
2021/11/11 08:10:39;;;;;;;3.88;2.47;;;10.60;64.90;;;;;;4919255;29;20039;-86
2021/11/11 08:13:05;;;;;;;5.13;2.90;;;10.60;65.00;;;;;;4919328;29;20088;-85
2021/11/11 08:15:31;;;;;;;4.55;2.63;;;10.60;64.90;;;;;;4920704;29;20135;-85
2021/11/11 08:17:58;;;;;;;4.78;3.00;;;10.70;65.00;;;;;;4918891;29;20140;-86
2021/11/11 08:20:25;;;;;;;5.03;3.17;;;10.70;64.90;;;;;;4918252;29;20036;-83
2021/11/11 08:22:51;;;;;;;4.18;2.63;;;10.70;64.80;;;;;;4905301;29;20522;-82
2021/11/11 08:25:20;;;;;;;4.68;3.25;;;10.70;64.90;;;;;;4920750;29;20032;-85
2021/11/11 08:27:47;;;;;;;4.65;3.15;;;10.70;64.90;;;;;;4923269;29;20080;-83
2021/11/11 08:30:15;;;;;;;6.63;2.67;;;10.80;64.90;;;;;;4902317;29;20036;-84
2021/11/11 08:32:43;;;;;;;3.88;2.58;;;10.80;65.00;;;;;;4902299;29;20135;-83
2021/11/11 08:35:11;;;;;;;5.70;3.00;;;10.80;64.90;;;;;;4918234;29;20033;-85
2021/11/11 08:37:40;;;;;;;4.90;3.25;;;10.80;65.10;;;;;;4901455;29;20036;-84
2021/11/11 08:40:07;;;;;;;7.80;3.03;;;10.80;65.10;;;;;;4921825;29;20036;-86
2021/11/11 08:42:33;;;;;;;5.55;3.00;;;10.90;65.10;;;;;;4921922;29;20036;-86
2021/11/11 08:45:00;;;;;;;8.15;2.85;;;10.90;65.00;;;;;;4920750;29;20490;-85
2021/11/11 08:47:27;;;;;;;4.88;3.20;;;10.90;65.00;;;;;;4905396;29;20039;-83
2021/11/11 08:49:55;;;;;;;4.10;2.85;;;10.90;65.10;;;;;;4903282;29;20036;-84
2021/11/11 08:52:22;;;;;;;5.28;3.30;;;10.90;65.00;;;;;;4904770;29;20044;-85
2021/11/11 08:54:49;;;;;;;5.65;3.30;;;10.90;65.10;;;;;;4922192;29;20125;-84
2021/11/11 08:57:15;;;;;;;4.95;3.10;;;11.00;65.10;;;;;;4920666;29;20039;-85
2021/11/11 08:59:41;;;;;;;4.82;3.08;;;11.00;65.10;;;;;;4924206;29;20040;-85
2021/11/11 09:02:11;;;;;;;6.38;3.40;;;11.00;65.10;;;;;;4921917;29;20410;-85
2021/11/11 09:04:37;;;;;;;5.80;3.30;;;11.00;65.10;;;;;;4921489;29;20284;-85
2021/11/11 09:07:04;;;;;;;6.70;2.95;;;11.00;65.10;;;;;;4904957;29;20605;-85
2021/11/11 09:09:29;;;;;;;4.93;3.38;;;11.00;65.10;;;;;;4892793;29;20586;-85
2021/11/11 09:11:55;;;;;;;4.25;2.78;;;11.00;65.00;;;;;;4905056;29;20115;-84
2021/11/11 09:14:21;;;;;;;5.15;3.45;;;11.00;65.00;;;;;;4905740;29;20131;-81
2021/11/11 09:16:47;;;;;;;5.40;3.33;;;11.00;65.00;;;;;;4921616;29;20031;-83
2021/11/11 09:19:14;;;;;;;7.05;3.30;;;11.00;65.10;;;;;;4905177;29;20036;-90
2021/11/11 09:21:41;;;;;;;4.75;3.53;;;11.00;65.10;;;;;;4911819;29;20074;-85
2021/11/11 09:24:10;;;;;;;6.95;3.88;;;11.10;65.10;;;;;;4910163;29;20038;-85
2021/11/11 09:26:37;;;;;;;6.22;3.88;;;11.10;65.10;;;;;;4906890;29;20051;-85
2021/11/11 09:29:04;;;;;;;6.10;3.90;;;11.10;65.30;;;;;;4920094;29;20040;-82
2021/11/11 09:31:30;;;;;;;5.20;3.83;;;11.10;65.30;;;;;;4921984;29;20176;-85
2021/11/11 09:33:57;;;;;;;5.72;3.70;;;11.10;65.30;;;;;;4904838;29;20028;-85
2021/11/11 09:36:23;;;;;;;7.05;3.78;;;11.10;65.10;;;;;;4920147;29;20076;-84
2021/11/11 09:38:49;;;;;;;5.90;3.70;;;11.10;65.20;;;;;;4903814;29;20062;-86
2021/11/11 09:41:18;;;;;;;7.63;3.60;;;11.10;65.20;;;;;;4921309;29;20597;-86
2021/11/11 09:43:44;;;;;;;8.98;3.97;;;11.20;65.20;;;;;;4903482;29;20118;-86
2021/11/11 09:46:13;;;;;;;9.57;4.35;;;11.20;65.30;;;;;;4905087;29;20091;-86
2021/11/11 09:48:40;;;;;;;7.93;3.67;;;11.20;65.30;;;;;;4904177;29;20526;-87
2021/11/11 09:51:09;;;;;;;7.45;4.10;;;11.20;65.30;;;;;;4920432;29;20158;-85
2021/11/11 09:53:48;;;;;;;6.50;4.20;;;11.20;65.20;;;;;;4920328;29;20064;-87
2021/11/11 09:58:59;;;;;;;6.32;3.90;;;11.20;65.40;;;;;;4920076;29;20039;-86
2021/11/11 10:01:26;;;;;;;4.97;3.97;;;11.20;65.30;;;;;;4921786;29;20056;-87
2021/11/11 10:03:53;;;;;;;6.80;4.82;;;11.30;65.40;;;;;;4904886;29;20074;-87
2021/11/11 10:06:23;;;;;;;7.50;3.97;;;11.20;65.30;;;;;;4923652;29;20059;-85
2021/11/11 10:08:54;;;;;;;6.93;4.00;;;11.30;65.50;;;;;;4892407;29;20490;-86
2021/11/11 10:11:34;;;;;;;6.55;4.28;;;11.30;65.50;;;;;;4892156;29;20414;-85
2021/11/11 10:14:06;;;;;;;8.20;4.13;;;11.30;65.80;;;;;;4921289;29;20455;-86
2021/11/11 10:16:40;;;;;;;7.55;4.65;;;11.30;66.10;;;;;;4905111;29;20032;-86
2021/11/11 10:19:06;;;;;;;8.10;4.50;;;11.30;66.00;;;;;;4908484;29;20035;-82
2021/11/11 10:21:55;;;;;;;8.30;4.50;;;11.30;66.10;;;;;;4920258;29;20045;-84
2021/11/11 10:24:21;;;;;;;7.00;4.30;;;11.30;66.00;;;;;;4921429;29;20149;-83
2021/11/11 10:27:27;;;;;;;10.38;4.53;;;11.30;66.20;;;;;;4903309;29;20047;-83
2021/11/11 10:29:55;;;;;;;6.55;4.15;;;11.30;66.40;;;;;;4906658;29;20502;-86
2021/11/11 10:32:26;;;;;;;8.35;4.63;;;11.40;66.40;;;;;;4921878;29;20036;-84
2021/11/11 10:34:59;;;;;;;6.00;4.10;;;11.40;66.50;;;;;;4920977;29;20154;-85
2021/11/11 10:37:33;;;;;;;5.72;4.10;;;11.40;67.00;;;;;;4920151;29;20115;-84
2021/11/11 10:40:08;;;;;;;6.70;4.20;;;11.40;66.40;;;;;;4920153;29;20028;-86
2021/11/11 10:42:36;;;;;;;8.70;4.28;;;11.40;66.40;;;;;;4918792;29;20399;-87
2021/11/11 10:45:07;;;;;;;5.95;4.60;;;11.40;66.40;;;;;;4920294;29;20051;-85
2021/11/11 10:47:36;;;;;;;7.38;4.47;;;11.40;66.40;;;;;;4903142;29;20039;-87
2021/11/11 10:50:19;;;;;;;7.50;4.45;;;11.40;66.30;;;;;;4920660;29;20430;-82
2021/11/11 10:52:49;;;;;;;8.50;4.35;;;11.40;66.20;;;;;;4919100;29;20642;-86
2021/11/11 10:55:25;;;;;;;7.20;4.45;;;11.40;66.80;;;;;;4902779;29;20091;-85
2021/11/11 10:57:55;;;;;;;7.00;4.22;;;11.40;66.10;;;;;;4902588;29;20122;-85
2021/11/11 11:00:24;;;;;;;9.63;4.78;;;11.40;66.20;;;;;;4920066;29;20062;-87
2021/11/11 11:02:53;;;;;;;5.85;3.90;;;11.40;66.20;;;;;;4907258;29;20055;-86
2021/11/11 11:05:22;;;;;;;5.85;4.05;;;11.50;66.20;;;;;;4920356;29;20038;-86
2021/11/11 11:08:01;;;;;;;6.55;4.40;;;11.50;66.70;;;;;;4919757;29;20042;-85
2021/11/11 11:10:29;;;;;;;8.10;4.28;;;11.40;66.10;;;;;;4920164;29;20043;-83
2021/11/11 11:12:56;;;;;;;8.20;5.22;;;11.50;66.30;;;;;;4918888;29;20094;-83
2021/11/11 11:15:53;;;;;;;6.28;4.03;;;11.50;66.30;;;;;;4903572;29;20174;-85
2021/11/11 11:18:32;;;;;;;7.43;3.22;;;11.60;69.60;;;;;;4910403;29;20036;-85
2021/11/11 11:21:02;;;;;;;5.35;3.58;;;11.70;70.00;;;;;;4927178;29;20032;-86
2021/11/11 11:23:35;;;;;;;6.80;4.22;;;11.80;68.70;;;;;;4906248;29;20042;-86
2021/11/11 11:26:59;;;;;;;5.95;4.03;;;11.80;67.80;;;;;;4920538;29;20043;-85
2021/11/11 11:34:32;;;;;;;8.88;4.15;;;11.80;66.60;;;;;;4926343;29;20090;-86
2021/11/11 11:37:03;;;;;;;7.15;4.60;;;11.80;66.40;;;;;;4928273;29;20082;-85
2021/11/11 11:39:33;;;;;;;8.50;4.60;;;11.80;66.20;;;;;;4923562;29;20050;-87
2021/11/11 11:42:09;;;;;;;10.60;4.97;;;11.80;66.10;;;;;;4924197;29;20036;-87
2021/11/11 11:45:02;;;;;;;;;;;11.80;65.90;;;;;;4917487;29;20396;-85
2021/11/11 11:50:22;;;;;;;7.13;4.13;;;11.80;65.80;;;;;;4900467;29;20487;-86
2021/11/11 11:53:00;;;;;;;7.68;4.72;;;11.80;65.80;;;;;;4919899;29;20067;-87
2021/11/11 11:55:33;;;;;;;7.78;4.75;;;11.80;65.80;;;;;;4919345;29;20051;-85
2021/11/11 12:09:21;;;;;;;8.18;5.10;;;11.80;64.90;;;;;;4914176;29;20091;-82
2021/11/11 12:12:07;;;;;;;7.72;5.57;;;11.70;64.20;;;;;;4919037;29;20523;-82
2021/11/11 12:14:45;;;;;;;7.20;5.57;;;11.70;63.90;;;;;;4923555;29;20183;-83
2021/11/11 12:28:57;;;;;;;10.55;5.97;;;11.50;63.00;;;;;;4922315;29;20036;-80
2021/11/11 12:40:05;;;;;;;9.35;6.22;;;11.20;63.00;;;;;;4922966;29;20040;-82
2021/11/11 12:42:43;;;;;;;11.50;6.45;;;11.20;63.10;;;;;;4922396;29;20039;-82
2021/11/11 12:45:22;;;;;;;13.10;6.72;;;11.20;63.00;;;;;;4923035;29;20044;-82
2021/11/11 12:48:05;;;;;;;12.32;6.82;;;11.10;63.50;;;;;;4924204;29;20036;-81
2021/11/11 12:50:39;;;;;;;8.65;6.07;;;11.10;63.00;;;;;;4906104;29;20047;-81
2021/11/11 12:53:21;;;;;;;9.45;6.40;;;11.10;63.10;;;;;;4921690;29;20104;-82
2021/11/11 12:55:59;;;;;;;10.20;6.40;;;11.10;63.10;;;;;;4922775;29;20034;-83
2021/11/11 12:58:33;;;;;;;8.60;5.93;;;11.00;63.10;;;;;;4920951;29;20032;-80
2021/11/11 13:01:21;;;;;;;10.40;6.22;;;11.00;63.10;;;;;;4921849;29;20126;-81
2021/11/11 13:03:58;;;;;;;8.95;5.68;;;11.00;63.10;;;;;;4910151;29;20499;-80
2021/11/11 13:06:35;;;;;;;9.93;6.25;;;10.90;63.10;;;;;;4904485;29;20040;-83
2021/11/11 13:09:11;;;;;;;10.55;6.50;;;10.90;63.20;;;;;;4908688;29;20042;-81
2021/11/11 13:12:09;;;;;;;10.88;6.22;;;10.90;63.20;;;;;;4922623;29;20047;-82
2021/11/11 13:14:57;;;;;;;10.57;6.28;;;10.90;63.20;;;;;;4897381;29;20036;-83
2021/11/11 13:17:26;;;;;;;8.60;6.25;;;10.80;63.80;;;;;;4922398;29;20464;-81
2021/11/11 13:19:58;;;;;;;11.63;6.88;;;10.80;63.20;;;;;;4887837;29;20459;-81
2021/11/11 13:22:44;;;;;;;8.93;6.15;;;10.80;63.20;;;;;;4922624;29;20038;-83
2021/11/11 15:19:08;;;;;;;13.27;8.50;;;10.30;64.00;;;;;;4927311;29;20054;-86
2021/11/11 16:01:20;;;;;;;14.25;8.25;;;10.20;64.10;;;;;;4918662;29;20144;-87
2021/11/11 16:20:39;;;;;;;12.90;7.97;;;10.20;64.40;;;;;;4839169;29;20517;-82
2021/11/11 16:23:17;;;;;;;14.30;7.57;;;10.20;64.40;;;;;;4901183;29;20032;-83
2021/11/11 16:28:48;;;;;;;11.40;7.15;;;10.30;65.30;;;;;;4868903;29;20629;-84
2021/11/11 16:31:15;;;;;;;11.15;6.78;;;10.40;66.40;;;;;;4875625;29;20096;-83
2021/11/11 16:33:43;;;;;;;10.65;7.18;;;10.40;66.80;;;;;;4865085;29;20670;-84
2021/11/11 16:36:09;;;;;;;9.32;6.53;;;10.50;67.10;;;;;;4885298;29;20124;-83
2021/11/11 16:38:36;;;;;;;9.93;6.28;;;10.50;67.30;;;;;;4925191;29;20036;-79
2021/11/11 16:41:04;;;;;;;12.55;7.32;;;10.60;67.40;;;;;;4933203;29;20372;-79
2021/11/11 16:43:31;;;;;;;13.20;6.80;;;10.60;67.60;;;;;;4927589;29;20432;-78
2021/11/11 16:45:57;;;;;;;13.65;7.45;;;10.70;68.00;;;;;;4933046;29;20414;-78
2021/11/11 16:48:22;;;;;;;13.02;6.80;;;10.70;68.40;;;;;;4928104;29;20024;-79
2021/11/11 16:50:49;;;;;;;10.57;6.43;;;10.70;68.40;;;;;;4921217;29;20115;-77
2021/11/11 16:53:14;;;;;;;12.38;6.53;;;10.80;68.70;;;;;;4917984;29;20032;-83
2021/11/11 16:55:40;;;;;;;12.60;6.82;;;10.80;68.70;;;;;;4885537;29;20098;-80
2021/11/11 16:58:07;;;;;;;12.35;6.57;;;10.80;68.70;;;;;;4890058;29;20380;-82
2021/11/11 17:00:33;;;;;;;10.77;6.78;;;10.80;68.60;;;;;;4920952;29;20042;-83
2021/11/11 17:02:59;;;;;;;11.63;6.53;;;10.90;68.50;;;;;;4922491;29;20172;-79